KOPL/OPL METAR and TAF weather

Enter ICAO airport designator
Station Type Date Time Source
KOPL METAR 2022/12/04 04:15 UTC NOAA

KOPL 040415Z AUTO 05007KT 10SM CLR 18/18 A3030 RMK AO2 T01830175


Station Type Date Time Source
KOPL Decoded METAR 2022/12/04 04:15 UTC NOAA

Station name not available
Dec 03, 2022 - 11:15 PM EST / 2022.12.04 0415 UTC
Wind: from the NE (050 degrees) at 8 MPH (7 KT):0
Visibility: 10 mile(s):0
Sky conditions: clear
Temperature: 64.9 F (18.3 C)
Dew Point: 63.5 F (17.5 C)
Relative Humidity: 95%
Pressure (altimeter): 30.3 in. Hg (1026 hPa)
ob: KOPL 040415Z AUTO 05007KT 10SM CLR 18/18 A3030 RMK AO2 T01830175
cycle: 4

Station Type Date Time Source
KOPL TAF UTC NOAA

Error!

Example: see airport list